createdAt,value
2019-02-18T00:00:50.673Z,100172.48
2019-02-18T00:05:58.687Z,100170.90
2019-02-18T00:11:04.643Z,100170.47
2019-02-18T00:16:10.363Z,100172.50
2019-02-18T00:21:16.805Z,100174.24
2019-02-18T00:26:22.634Z,100181.80
2019-02-18T00:31:28.550Z,100179.98
2019-02-18T00:36:34.399Z,100179.73
2019-02-18T00:41:40.378Z,100184.81
2019-02-18T00:46:46.041Z,100178.12
2019-02-18T00:51:52.306Z,100178.80
2019-02-18T00:56:58.567Z,100167.77
2019-02-18T01:02:04.232Z,100167.88
2019-02-18T01:07:11.282Z,100158.81
2019-02-18T01:12:18.176Z,100156.42
2019-02-18T01:17:24.353Z,100162.31
2019-02-18T01:22:29.956Z,100153.33
2019-02-18T01:27:35.890Z,100142.98
2019-02-18T01:32:41.522Z,100139.03
2019-02-18T01:37:47.449Z,100134.83
2019-02-18T01:42:53.055Z,100132.52
2019-02-18T01:47:58.982Z,100134.95
2019-02-18T01:53:04.620Z,100129.98
2019-02-18T01:58:10.243Z,100125.55
2019-02-18T02:03:15.851Z,100126.89
2019-02-18T02:08:21.452Z,100124.58
2019-02-18T02:13:32.442Z,100116.08
2019-02-18T02:18:38.123Z,100111.67
2019-02-18T02:23:43.728Z,100112.87
2019-02-18T02:28:49.352Z,100107.65
2019-02-18T02:33:55.186Z,100100.31
2019-02-18T02:39:00.769Z,100099.40
2019-02-18T02:44:06.717Z,100097.99
2019-02-18T02:49:12.448Z,100100.44
2019-02-18T02:54:18.128Z,100100.30
2019-02-18T02:59:23.885Z,100101.74
2019-02-18T03:04:29.679Z,100090.97
2019-02-18T03:09:35.285Z,100086.59
2019-02-18T03:14:41.109Z,100097.88
2019-02-18T03:19:47.346Z,100092.59
2019-02-18T03:25:20.272Z,100085.79
2019-02-18T03:30:43.955Z,100090.75
2019-02-18T03:35:49.930Z,100084.17
2019-02-18T03:41:03.124Z,100074.52
2019-02-18T03:46:03.017Z,100076.00
2019-02-18T03:51:08.845Z,100074.05
2019-02-18T03:56:14.459Z,100081.14
2019-02-18T04:01:20.130Z,100074.33
2019-02-18T04:06:26.065Z,100070.41
2019-02-18T04:11:31.983Z,100071.53
2019-02-18T04:16:37.613Z,100067.92
2019-02-18T04:21:43.401Z,100061.05
2019-02-18T04:26:49.024Z,100062.90
2019-02-18T04:31:54.929Z,100067.44
2019-02-18T04:37:00.809Z,100065.31
2019-02-18T04:42:06.730Z,100065.27
2019-02-18T04:47:13.480Z,100059.97
2019-02-18T04:52:19.101Z,100063.59
2019-02-18T04:57:25.156Z,100061.27
2019-02-18T05:02:30.783Z,100059.43
2019-02-18T05:07:36.583Z,100063.80
2019-02-18T05:12:42.259Z,100060.38
2019-02-18T05:17:48.325Z,100054.80
2019-02-18T05:22:54.017Z,100050.77
2019-02-18T05:27:59.705Z,100071.55
2019-02-18T05:33:05.475Z,100067.16
2019-02-18T05:38:11.147Z,100062.18
2019-02-18T05:43:16.768Z,100067.91
2019-02-18T05:48:22.406Z,100071.05
2019-02-18T05:53:28.032Z,100071.61
2019-02-18T05:58:33.690Z,100083.06
2019-02-18T06:03:39.468Z,100094.63
2019-02-18T06:08:45.092Z,100103.69
2019-02-18T06:13:51.093Z,100094.16
2019-02-18T06:18:56.739Z,100101.98
2019-02-18T06:24:02.819Z,100103.30
2019-02-18T06:29:08.897Z,100099.48
2019-02-18T06:34:14.516Z,100095.95
2019-02-18T06:39:20.273Z,100104.85
2019-02-18T06:44:36.207Z,100107.19
2019-02-18T06:49:41.922Z,100116.52
2019-02-18T06:54:47.642Z,100112.61
2019-02-18T06:59:55.824Z,100111.17
2019-02-18T07:05:09.136Z,100114.89
2019-02-18T07:10:23.196Z,100115.70
2019-02-18T07:15:28.982Z,100116.29
2019-02-18T07:20:34.746Z,100112.84
2019-02-18T07:25:40.362Z,100111.84
2019-02-18T07:30:46.192Z,100117.77
2019-02-18T07:35:51.900Z,100111.96
2019-02-18T07:40:57.687Z,100117.83
2019-02-18T07:46:03.606Z,100114.55
2019-02-18T07:51:09.259Z,100113.15
2019-02-18T07:56:14.904Z,100106.27
2019-02-18T08:01:20.713Z,100099.58
2019-02-18T08:06:26.513Z,100101.03
2019-02-18T08:11:32.210Z,100095.70
2019-02-18T08:16:37.822Z,100099.86
2019-02-18T08:21:43.775Z,100092.30
2019-02-18T08:26:49.430Z,100080.52
2019-02-18T08:31:55.366Z,100085.78
2019-02-18T08:37:01.002Z,100076.77
2019-02-18T08:42:06.899Z,100071.41
2019-02-18T08:47:12.535Z,100077.63
2019-02-18T08:52:18.403Z,100076.30
2019-02-18T08:57:24.375Z,100081.77
2019-02-18T09:02:30.123Z,100085.59
2019-02-18T09:07:36.349Z,100086.52
2019-02-18T09:12:42.180Z,100084.80
2019-02-18T09:17:47.904Z,100074.91
2019-02-18T09:23:02.070Z,100074.64
2019-02-18T09:28:07.863Z,100063.01
2019-02-18T09:33:13.944Z,100069.81
2019-02-18T09:38:24.809Z,100066.38
2019-02-18T09:43:26.882Z,100058.59
2019-02-18T09:48:32.515Z,100063.38
2019-02-18T09:53:38.430Z,100061.39
2019-02-18T09:58:44.197Z,100058.72
2019-02-18T10:03:50.467Z,100062.33
2019-02-18T10:08:56.094Z,100063.44
2019-02-18T10:14:02.135Z,100058.34
2019-02-18T10:19:07.953Z,100055.13
2019-02-18T10:24:13.843Z,100048.95
2019-02-18T10:29:19.466Z,100039.01
2019-02-18T10:34:25.512Z,100030.30
2019-02-18T10:39:31.175Z,100028.48
2019-02-18T10:44:37.442Z,100012.77
2019-02-18T10:49:43.319Z,100005.55
2019-02-18T10:54:49.691Z,100001.73
2019-02-18T10:59:55.695Z,99997.73
2019-02-18T11:05:01.900Z,99990.12
2019-02-18T11:10:11.587Z,99976.81
2019-02-18T11:15:17.614Z,99972.36
2019-02-18T11:20:23.885Z,99961.86
2019-02-18T11:25:29.784Z,99962.26
2019-02-18T11:30:36.024Z,99953.81
2019-02-18T11:35:41.672Z,99954.75
2019-02-18T11:40:47.566Z,99942.71
2019-02-18T11:45:53.641Z,99937.03
2019-02-18T11:50:59.283Z,99933.64
2019-02-18T11:56:05.138Z,99920.86
2019-02-18T12:01:11.010Z,99916.47
2019-02-18T12:06:16.679Z,99912.67
2019-02-18T12:11:22.635Z,99897.50
2019-02-18T12:16:28.711Z,99891.69
2019-02-18T12:21:34.477Z,99879.68
2019-02-18T12:26:40.577Z,99883.98
2019-02-18T12:31:46.183Z,99860.69
2019-02-18T12:36:52.203Z,99870.23
2019-02-18T12:41:58.151Z,99862.06
2019-02-18T12:47:04.053Z,99849.23
2019-02-18T12:52:10.022Z,99846.91
2019-02-18T12:57:16.308Z,99844.25
2019-02-18T13:02:22.305Z,99835.06
2019-02-18T13:07:28.088Z,99829.00
2019-02-18T13:12:34.092Z,99820.06
2019-02-18T13:17:42.563Z,99809.60
2019-02-18T13:22:47.567Z,99817.31
2019-02-18T13:27:53.767Z,99810.36
2019-02-18T13:37:03.866Z,99803.89
2019-02-18T13:42:09.941Z,99805.28
2019-02-18T13:47:15.569Z,99806.70
2019-02-18T13:52:21.873Z,99799.89
2019-02-18T13:57:27.586Z,99798.55
2019-02-18T14:02:33.587Z,99798.66
2019-02-18T14:07:39.295Z,99794.95
2019-02-18T14:12:45.287Z,99798.65
2019-02-18T14:17:50.928Z,99795.42
2019-02-18T14:22:56.954Z,99788.53
2019-02-18T14:28:02.833Z,99786.45
2019-02-18T14:33:08.748Z,99783.45
2019-02-18T14:38:14.856Z,99782.45
2019-02-18T14:43:20.666Z,99781.13
2019-02-18T14:48:26.452Z,99781.13
2019-02-18T14:53:32.705Z,99774.18
2019-02-18T14:58:38.824Z,99775.41
2019-02-18T15:03:44.425Z,99774.38
2019-02-18T15:08:50.427Z,99773.05
2019-02-18T15:13:56.417Z,99769.34
2019-02-18T15:19:02.152Z,99772.56
2019-02-18T15:24:08.135Z,99768.23
2019-02-18T15:29:14.616Z,99769.84
2019-02-18T15:34:20.311Z,99766.36
2019-02-18T15:39:26.277Z,99763.73
2019-02-18T15:44:32.177Z,99764.02
2019-02-18T15:49:37.815Z,99758.73
2019-02-18T15:54:43.726Z,99768.19
2019-02-18T15:59:49.961Z,99763.59
2019-02-18T16:04:55.849Z,99766.26
2019-02-18T16:10:02.394Z,99765.19
2019-02-18T16:15:08.420Z,99763.66
2019-02-18T16:20:14.320Z,99764.73
2019-02-18T16:25:21.473Z,99769.84
2019-02-18T16:30:27.426Z,99769.39
2019-02-18T16:35:33.539Z,99769.50
2019-02-18T16:40:39.222Z,99771.44
2019-02-18T16:45:45.210Z,99770.91
2019-02-18T16:50:51.514Z,99764.37
2019-02-18T16:55:57.551Z,99766.46
2019-02-18T17:01:05.020Z,99762.96
2019-02-18T17:06:11.409Z,99770.66
2019-02-18T17:11:17.311Z,99767.31
2019-02-18T17:16:23.341Z,99759.18
2019-02-18T17:21:29.049Z,99769.44
2019-02-18T17:26:35.228Z,99768.29
2019-02-18T17:31:41.342Z,99768.52
2019-02-18T17:36:46.985Z,99768.71
2019-02-18T17:41:53.144Z,99768.36
2019-02-18T17:46:59.093Z,99776.77
2019-02-18T17:52:05.443Z,99774.22
2019-02-18T17:57:11.309Z,99767.03
2019-02-18T18:02:17.155Z,99761.62
2019-02-18T18:07:22.989Z,99765.70
2019-02-18T18:12:29.487Z,99761.56
2019-02-18T18:17:35.618Z,99759.78
2019-02-18T18:22:41.634Z,99759.49
2019-02-18T18:27:47.657Z,99759.38
2019-02-18T18:32:53.449Z,99749.95
2019-02-18T18:37:59.486Z,99757.73
2019-02-18T18:43:05.151Z,99748.45
2019-02-18T18:48:11.070Z,99747.62
2019-02-18T18:53:16.742Z,99749.52
2019-02-18T18:58:22.666Z,99746.88
2019-02-18T19:03:28.335Z,99741.48
2019-02-18T19:08:34.103Z,99741.61
2019-02-18T19:13:42.104Z,99745.14
2019-02-18T19:18:47.683Z,99744.05
2019-02-18T19:23:53.458Z,99742.16
2019-02-18T19:28:59.267Z,99742.48
2019-02-18T19:34:05.436Z,99744.56
2019-02-18T19:39:12.624Z,99744.38
2019-02-18T19:44:17.290Z,99742.70
2019-02-18T19:49:23.498Z,99740.52
2019-02-18T19:54:29.375Z,99744.06
2019-02-18T19:59:35.051Z,99738.48
2019-02-18T20:04:41.151Z,99730.44
2019-02-18T20:09:47.499Z,99735.41
2019-02-18T20:14:53.495Z,99728.80
2019-02-18T20:19:59.155Z,99725.73
2019-02-18T20:25:05.503Z,99726.03
2019-02-18T20:30:11.875Z,99727.99
2019-02-18T20:35:17.786Z,99731.58
2019-02-18T20:40:23.864Z,99734.31
2019-02-18T20:45:29.532Z,99727.27
2019-02-18T20:50:35.457Z,99725.48
2019-02-18T20:55:41.140Z,99726.76
2019-02-18T21:00:46.782Z,99724.11
2019-02-18T21:05:52.478Z,99720.28
2019-02-18T21:10:58.171Z,99714.92
2019-02-18T21:16:04.009Z,99714.32
2019-02-18T21:21:09.845Z,99707.77
2019-02-18T21:26:16.066Z,99715.64
2019-02-18T21:31:21.815Z,99708.09
2019-02-18T21:36:27.739Z,99701.42
2019-02-18T21:41:33.716Z,99704.84
2019-02-18T21:46:39.770Z,99707.09
2019-02-18T21:51:45.749Z,99707.15
2019-02-18T21:56:51.394Z,99702.50
2019-02-18T22:01:57.031Z,99702.02
2019-02-18T22:07:02.990Z,99713.22
2019-02-18T22:12:08.582Z,99709.75
2019-02-18T22:17:14.603Z,99715.80
2019-02-18T22:22:21.118Z,99712.16
2019-02-18T22:27:27.424Z,99708.52
2019-02-18T22:32:33.948Z,99694.38
2019-02-18T22:37:39.928Z,99694.17
2019-02-18T22:42:45.903Z,99702.41
2019-02-18T22:47:51.504Z,99699.67
2019-02-18T22:52:57.396Z,99688.26
2019-02-18T22:58:03.031Z,99689.98
2019-02-18T23:03:08.947Z,99693.45
2019-02-18T23:08:14.566Z,99697.09
2019-02-18T23:13:20.238Z,99700.09
2019-02-18T23:18:25.905Z,99692.45
2019-02-18T23:23:32.017Z,99686.05
2019-02-18T23:28:38.401Z,99688.66
2019-02-18T23:33:44.492Z,99685.72
2019-02-18T23:38:50.129Z,99677.92
2019-02-18T23:43:56.021Z,99664.91
2019-02-18T23:49:02.261Z,99669.31
2019-02-18T23:54:08.434Z,99666.11
2019-02-18T23:59:14.610Z,99661.10
